Beverley Springs Airport


Codes: YBYS/BVZ
Name: Beverley Springs Airport
City:
Country: Australia
Elevation: 385 ft.

Photos at Beverley Springs Airport


   Photos courtesy of SpottingLog. You can add your own sightings and photos by signing up for a free trial today.



No photos found.

Weather at Beverley Springs Airport


Time (UTC)DescriptionTempratureWindCloud coverageVisibilityPressureHumidity
18-Apr-2024 00:00Broken Clouds24°C20 mph, SE68%10000m1013hPa44%
18-Apr-2024 03:00Broken Clouds29°C22 mph, SE75%10000m1012hPa33%
18-Apr-2024 06:00Broken Clouds33°C18 mph, SE52%10000m1010hPa25%
18-Apr-2024 09:00Broken Clouds31°C13 mph, SE53%10000m1010hPa30%
18-Apr-2024 12:00Broken Clouds27°C9 mph, E74%10000m1012hPa36%
18-Apr-2024 15:00Clear Sky25°C11 mph, E10%10000m1013hPa40%
18-Apr-2024 18:00Scattered Clouds24°C11 mph, E40%10000m1012hPa43%
18-Apr-2024 21:00Overcast Clouds22°C11 mph, SE100%10000m1012hPa44%
19-Apr-2024 00:00Overcast Clouds27°C20 mph, SE97%10000m1014hPa34%
19-Apr-2024 03:00Broken Clouds31°C20 mph, E81%10000m1012hPa29%
19-Apr-2024 06:00Overcast Clouds33°C16 mph, E88%10000m1010hPa26%
19-Apr-2024 09:00Few Clouds30°C11 mph, E19%10000m1011hPa32%
19-Apr-2024 12:00Broken Clouds26°C9 mph, E55%10000m1014hPa39%
19-Apr-2024 15:00Overcast Clouds25°C11 mph, E100%10000m1014hPa39%
19-Apr-2024 18:00Overcast Clouds24°C13 mph, E100%10000m1013hPa41%
19-Apr-2024 21:00Broken Clouds22°C13 mph, E53%10000m1014hPa42%
20-Apr-2024 00:00Broken Clouds26°C22 mph, E59%10000m1015hPa34%
20-Apr-2024 03:00Overcast Clouds30°C20 mph, E86%10000m1013hPa27%
20-Apr-2024 06:00Broken Clouds32°C16 mph, E70%10000m1010hPa24%
20-Apr-2024 09:00Overcast Clouds29°C11 mph, SE95%10000m1011hPa29%
20-Apr-2024 12:00Overcast Clouds25°C11 mph, E97%10000m1014hPa33%
20-Apr-2024 15:00Overcast Clouds23°C13 mph, E90%10000m1014hPa36%
20-Apr-2024 18:00Overcast Clouds22°C13 mph, E95%10000m1013hPa38%
20-Apr-2024 21:00Overcast Clouds21°C11 mph, E100%10000m1014hPa38%
21-Apr-2024 00:00Overcast Clouds25°C18 mph, E93%10000m1015hPa27%
21-Apr-2024 03:00Overcast Clouds29°C18 mph, E91%10000m1013hPa22%
21-Apr-2024 06:00Broken Clouds31°C11 mph, E61%10000m1010hPa21%
21-Apr-2024 09:00Overcast Clouds28°C9 mph, SE88%10000m1011hPa27%
21-Apr-2024 12:00Broken Clouds24°C9 mph, SE83%10000m1013hPa29%
21-Apr-2024 15:00Broken Clouds22°C11 mph, E71%10000m1013hPa32%
21-Apr-2024 18:00Broken Clouds20°C11 mph, E67%10000m1012hPa31%
21-Apr-2024 21:00Clear Sky19°C11 mph, E6%10000m1012hPa31%
22-Apr-2024 00:00Clear Sky24°C16 mph, E5%10000m1013hPa24%
22-Apr-2024 03:00Clear Sky29°C13 mph, E2%10000m1011hPa18%
22-Apr-2024 06:00Clear Sky31°C9 mph, E5%10000m1008hPa15%
22-Apr-2024 09:00Clear Sky27°C7 mph, SE9%10000m1009hPa22%
22-Apr-2024 12:00Clear Sky23°C9 mph, E10%10000m1011hPa24%
22-Apr-2024 15:00Few Clouds22°C9 mph, E24%10000m1011hPa28%
22-Apr-2024 18:00Scattered Clouds20°C9 mph, E42%10000m1011hPa31%
22-Apr-2024 21:00Overcast Clouds19°C7 mph, E90%10000m1012hPa34%